sensor_id;sensor_type;location;lat;lon;timestamp;pressure;altitude;pressure_sealevel;temperature;humidity
41234;BME280;26968;42.686;23.352;2023-05-11T00:00:28;95413.69;;;11.04;63.44
41234;BME280;26968;42.686;23.352;2023-05-11T00:02:54;95460.81;;;11.43;62.72
41234;BME280;26968;42.686;23.352;2023-05-11T00:05:19;95431.69;;;11.17;63.02
41234;BME280;26968;42.686;23.352;2023-05-11T00:07:45;95419.75;;;11.20;62.19
41234;BME280;26968;42.686;23.352;2023-05-11T00:10:10;95367.31;;;10.87;62.50
41234;BME280;26968;42.686;23.352;2023-05-11T00:12:36;95433.75;;;11.41;62.24
41234;BME280;26968;42.686;23.352;2023-05-11T00:15:02;95458.69;;;11.50;62.91
41234;BME280;26968;42.686;23.352;2023-05-11T00:17:27;95429.03;;;11.28;62.91
41234;BME280;26968;42.686;23.352;2023-05-11T00:19:53;95449.41;;;11.37;62.83
41234;BME280;26968;42.686;23.352;2023-05-11T00:22:18;95439.34;;;11.34;62.35
41234;BME280;26968;42.686;23.352;2023-05-11T00:24:44;95405.25;;;10.87;63.13
41234;BME280;26968;42.686;23.352;2023-05-11T00:27:09;95435.16;;;11.18;62.31
41234;BME280;26968;42.686;23.352;2023-05-11T00:29:34;95447.59;;;11.22;62.37
41234;BME280;26968;42.686;23.352;2023-05-11T00:32:00;95432.22;;;11.14;62.09
41234;BME280;26968;42.686;23.352;2023-05-11T00:34:25;95460.59;;;11.24;62.44
41234;BME280;26968;42.686;23.352;2023-05-11T00:36:51;95426.47;;;10.87;62.49
41234;BME280;26968;42.686;23.352;2023-05-11T00:39:16;95468.03;;;11.22;62.19
41234;BME280;26968;42.686;23.352;2023-05-11T00:41:42;95446.59;;;11.03;61.96
41234;BME280;26968;42.686;23.352;2023-05-11T00:44:08;95460.41;;;11.00;62.46
41234;BME280;26968;42.686;23.352;2023-05-11T00:46:33;95418.00;;;10.80;62.03
41234;BME280;26968;42.686;23.352;2023-05-11T00:48:59;95444.78;;;10.83;62.24
41234;BME280;26968;42.686;23.352;2023-05-11T00:51:24;95447.97;;;10.86;62.52
41234;BME280;26968;42.686;23.352;2023-05-11T00:53:50;95428.06;;;10.78;62.47
41234;BME280;26968;42.686;23.352;2023-05-11T00:56:16;95468.63;;;11.09;62.18
41234;BME280;26968;42.686;23.352;2023-05-11T00:58:41;95455.13;;;10.85;62.34
41234;BME280;26968;42.686;23.352;2023-05-11T01:01:07;95454.03;;;10.91;62.44
41234;BME280;26968;42.686;23.352;2023-05-11T01:03:33;95428.88;;;10.78;62.18
41234;BME280;26968;42.686;23.352;2023-05-11T01:08:39;95442.13;;;10.78;62.29
41234;BME280;26968;42.686;23.352;2023-05-11T01:13:57;95450.09;;;10.89;61.64
41234;BME280;26968;42.686;23.352;2023-05-11T01:16:24;95466.78;;;10.99;62.21
41234;BME280;26968;42.686;23.352;2023-05-11T01:21:38;95458.03;;;10.83;61.55
41234;BME280;26968;42.686;23.352;2023-05-11T01:24:21;95462.84;;;10.81;61.62
41234;BME280;26968;42.686;23.352;2023-05-11T01:32:21;95432.09;;;10.65;60.83
41234;BME280;26968;42.686;23.352;2023-05-11T01:34:54;95442.69;;;10.65;61.38
41234;BME280;26968;42.686;23.352;2023-05-11T01:37:23;95424.38;;;10.54;61.50
41234;BME280;26968;42.686;23.352;2023-05-11T01:39:52;95451.69;;;10.69;61.88
41234;BME280;26968;42.686;23.352;2023-05-11T01:42:31;95472.13;;;10.89;61.34
41234;BME280;26968;42.686;23.352;2023-05-11T01:44:58;95460.69;;;10.83;61.02
41234;BME280;26968;42.686;23.352;2023-05-11T01:47:27;95428.63;;;10.70;61.07
41234;BME280;26968;42.686;23.352;2023-05-11T01:49:53;95442.94;;;10.69;61.51
41234;BME280;26968;42.686;23.352;2023-05-11T01:52:22;95474.50;;;10.96;61.13
41234;BME280;26968;42.686;23.352;2023-05-11T01:54:50;95432.84;;;10.76;61.35
41234;BME280;26968;42.686;23.352;2023-05-11T01:57:17;95451.69;;;10.79;61.09
41234;BME280;26968;42.686;23.352;2023-05-11T01:59:44;95466.78;;;10.84;60.89
41234;BME280;26968;42.686;23.352;2023-05-11T02:02:12;95426.78;;;10.65;60.55
41234;BME280;26968;42.686;23.352;2023-05-11T02:04:39;95436.34;;;10.66;60.97
41234;BME280;26968;42.686;23.352;2023-05-11T02:07:07;95463.66;;;10.67;61.64
41234;BME280;26968;42.686;23.352;2023-05-11T02:09:35;95476.09;;;10.76;62.15
41234;BME280;26968;42.686;23.352;2023-05-11T02:12:03;95473.19;;;10.83;61.53
41234;BME280;26968;42.686;23.352;2023-05-11T02:14:30;95461.78;;;10.72;61.55
41234;BME280;26968;42.686;23.352;2023-05-11T02:16:59;95448.78;;;10.81;60.96
41234;BME280;26968;42.686;23.352;2023-05-11T02:19:27;95441.09;;;10.74;60.98
41234;BME280;26968;42.686;23.352;2023-05-11T02:21:54;95471.31;;;10.94;60.57
41234;BME280;26968;42.686;23.352;2023-05-11T02:24:22;95447.19;;;10.75;60.87
41234;BME280;26968;42.686;23.352;2023-05-11T02:26:48;95450.91;;;10.74;60.76
41234;BME280;26968;42.686;23.352;2023-05-11T02:29:13;95405.84;;;10.43;61.00
41234;BME280;26968;42.686;23.352;2023-05-11T02:31:45;95460.97;;;10.82;61.09
41234;BME280;26968;42.686;23.352;2023-05-11T02:34:23;95432.63;;;10.42;61.87
41234;BME280;26968;42.686;23.352;2023-05-11T02:36:53;95455.16;;;10.65;61.26
41234;BME280;26968;42.686;23.352;2023-05-11T02:39:20;95466.81;;;10.79;61.32
41234;BME280;26968;42.686;23.352;2023-05-11T02:41:51;95471.84;;;10.70;61.48
41234;BME280;26968;42.686;23.352;2023-05-11T02:44:21;95469.75;;;10.67;61.62
41234;BME280;26968;42.686;23.352;2023-05-11T02:46:49;95453.56;;;10.59;61.97
41234;BME280;26968;42.686;23.352;2023-05-11T02:49:20;95471.84;;;10.70;61.62
41234;BME280;26968;42.686;23.352;2023-05-11T02:51:47;95426.53;;;10.47;61.76
41234;BME280;26968;42.686;23.352;2023-05-11T02:54:14;95419.91;;;10.39;61.52
41234;BME280;26968;42.686;23.352;2023-05-11T02:56:41;95408.25;;;10.25;61.87
41234;BME280;26968;42.686;23.352;2023-05-11T02:59:07;95429.44;;;10.40;62.15
41234;BME280;26968;42.686;23.352;2023-05-11T03:01:33;95446.41;;;10.39;62.44
41234;BME280;26968;42.686;23.352;2023-05-11T03:04:03;95463.66;;;10.52;62.30
41234;BME280;26968;42.686;23.352;2023-05-11T03:06:28;95385.41;;;9.93;62.45
41234;BME280;26968;42.686;23.352;2023-05-11T03:08:54;95408.47;;;9.98;62.88
41234;BME280;26968;42.686;23.352;2023-05-11T03:11:19;95401.59;;;10.12;62.95
41234;BME280;26968;42.686;23.352;2023-05-11T03:13:46;95428.66;;;10.34;62.18
41234;BME280;26968;42.686;23.352;2023-05-11T03:16:12;95457.25;;;10.22;62.80
41234;BME280;26968;42.686;23.352;2023-05-11T03:18:38;95365.25;;;9.72;62.98
41234;BME280;26968;42.686;23.352;2023-05-11T03:21:04;95425.69;;;9.95;62.79
41234;BME280;26968;42.686;23.352;2023-05-11T03:23:30;95440.00;;;10.15;62.83
41234;BME280;26968;42.686;23.352;2023-05-11T03:25:57;95423.06;;;10.05;63.20
41234;BME280;26968;42.686;23.352;2023-05-11T03:28:24;95467.09;;;10.27;63.48
41234;BME280;26968;42.686;23.352;2023-05-11T03:30:51;95468.09;;;10.16;63.55
41234;BME280;26968;42.686;23.352;2023-05-11T03:33:17;95455.91;;;10.04;63.62
41234;BME280;26968;42.686;23.352;2023-05-11T03:35:45;95478.47;;;10.17;64.20
41234;BME280;26968;42.686;23.352;2023-05-11T03:38:13;95439.19;;;9.89;64.03
41234;BME280;26968;42.686;23.352;2023-05-11T03:40:41;95454.31;;;10.03;63.32
41234;BME280;26968;42.686;23.352;2023-05-11T03:43:10;95472.34;;;10.12;64.21
41234;BME280;26968;42.686;23.352;2023-05-11T03:45:37;95422.75;;;9.87;63.89
41234;BME280;26968;42.686;23.352;2023-05-11T03:48:04;95458.00;;;10.07;64.15
41234;BME280;26968;42.686;23.352;2023-05-11T03:50:31;95437.06;;;9.91;64.26
41234;BME280;26968;42.686;23.352;2023-05-11T03:52:58;95454.84;;;10.16;63.74
41234;BME280;26968;42.686;23.352;2023-05-11T03:55:24;95471.53;;;10.16;64.05
41234;BME280;26968;42.686;23.352;2023-05-11T03:57:51;95484.84;;;10.26;63.90
41234;BME280;26968;42.686;23.352;2023-05-11T04:00:16;95387.53;;;9.76;64.01
41234;BME280;26968;42.686;23.352;2023-05-11T04:02:42;95482.75;;;10.43;63.84
41234;BME280;26968;42.686;23.352;2023-05-11T04:05:09;95468.16;;;10.26;63.71
41234;BME280;26968;42.686;23.352;2023-05-11T04:07:36;95492.81;;;10.36;64.31
41234;BME280;26968;42.686;23.352;2023-05-11T04:10:03;95486.19;;;10.44;64.36
41234;BME280;26968;42.686;23.352;2023-05-11T04:12:29;95412.41;;;9.85;64.15
41234;BME280;26968;42.686;23.352;2023-05-11T04:14:54;95450.34;;;10.11;64.65
41234;BME280;26968;42.686;23.352;2023-05-11T04:17:19;95461.75;;;10.06;65.05
41234;BME280;26968;42.686;23.352;2023-05-11T04:19:45;95416.41;;;9.83;64.35
41234;BME280;26968;42.686;23.352;2023-05-11T04:22:10;95484.56;;;10.18;65.10
41234;BME280;26968;42.686;23.352;2023-05-11T04:24:37;95469.75;;;10.22;64.85
41234;BME280;26968;42.686;23.352;2023-05-11T04:27:02;95434.16;;;9.97;64.88
41234;BME280;26968;42.686;23.352;2023-05-11T04:29:28;95425.63;;;9.65;65.59
41234;BME280;26968;42.686;23.352;2023-05-11T04:31:53;95493.59;;;10.22;65.42
41234;BME280;26968;42.686;23.352;2023-05-11T04:34:19;95468.31;;;9.94;65.90
41234;BME280;26968;42.686;23.352;2023-05-11T04:36:48;95494.13;;;10.29;65.54
41234;BME280;26968;42.686;23.352;2023-05-11T04:39:14;95460.66;;;9.97;65.86
41234;BME280;26968;42.686;23.352;2023-05-11T04:41:44;95461.19;;;10.10;65.09
41234;BME280;26968;42.686;23.352;2023-05-11T04:44:10;95438.13;;;9.95;65.79
41234;BME280;26968;42.686;23.352;2023-05-11T04:46:36;95492.81;;;10.21;65.83
41234;BME280;26968;42.686;23.352;2023-05-11T04:49:04;95482.16;;;10.11;65.94
41234;BME280;26968;42.686;23.352;2023-05-11T04:51:29;95488.28;;;10.27;65.47
41234;BME280;26968;42.686;23.352;2023-05-11T04:53:55;95486.97;;;10.34;65.29
41234;BME280;26968;42.686;23.352;2023-05-11T04:56:20;95472.94;;;10.34;65.06
41234;BME280;26968;42.686;23.352;2023-05-11T04:58:46;95479.28;;;10.33;65.42
41234;BME280;26968;42.686;23.352;2023-05-11T05:01:11;95468.41;;;10.19;65.46
41234;BME280;26968;42.686;23.352;2023-05-11T05:03:37;95479.75;;;10.10;65.93
41234;BME280;26968;42.686;23.352;2023-05-11T05:06:02;95465.72;;;10.14;65.97
41234;BME280;26968;42.686;23.352;2023-05-11T05:08:28;95507.66;;;10.37;66.14
41234;BME280;26968;42.686;23.352;2023-05-11T05:10:53;95465.97;;;10.02;66.36
41234;BME280;26968;42.686;23.352;2023-05-11T05:13:19;95505.19;;;10.16;66.24
41234;BME280;26968;42.686;23.352;2023-05-11T05:15:44;95440.22;;;9.73;66.43
41234;BME280;26968;42.686;23.352;2023-05-11T05:18:10;95488.78;;;10.14;65.76
41234;BME280;26968;42.686;23.352;2023-05-11T05:20:35;95498.91;;;10.22;65.85
41234;BME280;26968;42.686;23.352;2023-05-11T05:23:01;95505.78;;;10.33;65.83
41234;BME280;26968;42.686;23.352;2023-05-11T05:25:27;95516.41;;;10.28;66.59
41234;BME280;26968;42.686;23.352;2023-05-11T05:27:52;95481.41;;;10.26;66.15
41234;BME280;26968;42.686;23.352;2023-05-11T05:30:18;95467.00;;;9.96;66.06
41234;BME280;26968;42.686;23.352;2023-05-11T05:32:43;95522.78;;;10.42;66.31
41234;BME280;26968;42.686;23.352;2023-05-11T05:35:09;95495.47;;;10.36;65.90
41234;BME280;26968;42.686;23.352;2023-05-11T05:37:34;95523.03;;;10.40;66.20
41234;BME280;26968;42.686;23.352;2023-05-11T05:40:02;95526.47;;;10.41;66.62
41234;BME280;26968;42.686;23.352;2023-05-11T05:42:28;95509.78;;;10.35;66.07
41234;BME280;26968;42.686;23.352;2023-05-11T05:44:53;95526.22;;;10.42;66.30
41234;BME280;26968;42.686;23.352;2023-05-11T05:47:19;95539.97;;;10.19;66.79
41234;BME280;26968;42.686;23.352;2023-05-11T05:49:44;95484.78;;;10.06;65.91
41234;BME280;26968;42.686;23.352;2023-05-11T05:52:09;95447.69;;;9.91;65.75
41234;BME280;26968;42.686;23.352;2023-05-11T05:54:35;95497.78;;;10.13;66.08
41234;BME280;26968;42.686;23.352;2023-05-11T05:57:00;95544.25;;;10.45;66.37
41234;BME280;26968;42.686;23.352;2023-05-11T05:59:26;95520.34;;;10.30;65.98
41234;BME280;26968;42.686;23.352;2023-05-11T06:01:51;95492.75;;;10.06;65.92
41234;BME280;26968;42.686;23.352;2023-05-11T06:04:17;95527.31;;;10.52;66.00
41234;BME280;26968;42.686;23.352;2023-05-11T06:06:42;95534.69;;;10.39;66.02
41234;BME280;26968;42.686;23.352;2023-05-11T06:09:08;95531.81;;;10.56;65.53
41234;BME280;26968;42.686;23.352;2023-05-11T06:11:34;95514.81;;;10.47;65.67
41234;BME280;26968;42.686;23.352;2023-05-11T06:13:59;95468.63;;;10.13;65.66
41234;BME280;26968;42.686;23.352;2023-05-11T06:16:25;95549.84;;;10.79;65.56
41234;BME280;26968;42.686;23.352;2023-05-11T06:18:51;95549.31;;;10.77;65.26
41234;BME280;26968;42.686;23.352;2023-05-11T06:21:17;95483.53;;;10.29;65.37
41234;BME280;26968;42.686;23.352;2023-05-11T06:23:42;95548.00;;;10.65;65.06
41234;BME280;26968;42.686;23.352;2023-05-11T06:26:08;95560.75;;;10.83;65.18
41234;BME280;26968;42.686;23.352;2023-05-11T06:28:33;95564.72;;;10.75;65.14
41234;BME280;26968;42.686;23.352;2023-05-11T06:30:58;95554.63;;;10.72;64.98
41234;BME280;26968;42.686;23.352;2023-05-11T06:33:24;95526.25;;;10.58;64.89
41234;BME280;26968;42.686;23.352;2023-05-11T06:35:50;95496.78;;;10.39;64.41
41234;BME280;26968;42.686;23.352;2023-05-11T06:38:16;95529.69;;;10.58;64.76
41234;BME280;26968;42.686;23.352;2023-05-11T06:40:41;95574.28;;;10.97;64.51
41234;BME280;26968;42.686;23.352;2023-05-11T06:43:07;95531.28;;;10.44;65.14
41234;BME280;26968;42.686;23.352;2023-05-11T06:45:32;95512.69;;;10.34;64.86
41234;BME280;26968;42.686;23.352;2023-05-11T06:47:58;95575.88;;;10.82;64.56
41234;BME280;26968;42.686;23.352;2023-05-11T06:50:23;95474.50;;;10.25;64.71
41234;BME280;26968;42.686;23.352;2023-05-11T06:52:49;95571.59;;;10.71;64.44
41234;BME280;26968;42.686;23.352;2023-05-11T06:55:14;95533.66;;;10.56;64.52
41234;BME280;26968;42.686;23.352;2023-05-11T06:57:40;95531.00;;;10.45;64.28
41234;BME280;26968;42.686;23.352;2023-05-11T07:00:06;95570.53;;;10.57;64.33
41234;BME280;26968;42.686;23.352;2023-05-11T07:02:31;95548.50;;;10.62;64.18
41234;BME280;26968;42.686;23.352;2023-05-11T07:04:57;95553.03;;;10.81;63.75
41234;BME280;26968;42.686;23.352;2023-05-11T07:07:32;95516.16;;;10.65;63.71
41234;BME280;26968;42.686;23.352;2023-05-11T07:09:57;95526.25;;;10.73;63.52
41234;BME280;26968;42.686;23.352;2023-05-11T07:12:23;95483.00;;;10.37;63.95
41234;BME280;26968;42.686;23.352;2023-05-11T07:14:49;95545.88;;;10.97;63.03
41234;BME280;26968;42.686;23.352;2023-05-11T07:17:14;95550.91;;;10.99;62.47
41234;BME280;26968;42.686;23.352;2023-05-11T07:19:39;95512.72;;;10.64;63.05
41234;BME280;26968;42.686;23.352;2023-05-11T07:22:05;95555.16;;;11.10;63.03
41234;BME280;26968;42.686;23.352;2023-05-11T07:24:31;95541.63;;;11.11;62.50
41234;BME280;26968;42.686;23.352;2023-05-11T07:26:56;95520.13;;;11.03;62.05
41234;BME280;26968;42.686;23.352;2023-05-11T07:29:21;95571.00;;;11.45;62.00
41234;BME280;26968;42.686;23.352;2023-05-11T07:31:47;95575.25;;;11.46;61.05
41234;BME280;26968;42.686;23.352;2023-05-11T07:34:12;95575.53;;;11.45;61.72
41234;BME280;26968;42.686;23.352;2023-05-11T07:36:38;95565.41;;;11.57;60.80
41234;BME280;26968;42.686;23.352;2023-05-11T07:39:03;95541.28;;;11.38;60.64
41234;BME280;26968;42.686;23.352;2023-05-11T07:41:29;95551.31;;;11.61;59.48
41234;BME280;26968;42.686;23.352;2023-05-11T07:43:55;95535.09;;;11.68;58.90
41234;BME280;26968;42.686;23.352;2023-05-11T07:46:20;95534.72;;;12.00;57.82
41234;BME280;26968;42.686;23.352;2023-05-11T07:48:45;95540.03;;;12.05;59.18
41234;BME280;26968;42.686;23.352;2023-05-11T07:51:11;95530.38;;;12.19;58.21
41234;BME280;26968;42.686;23.352;2023-05-11T07:53:37;95538.06;;;12.26;58.28
41234;BME280;26968;42.686;23.352;2023-05-11T07:56:03;95526.81;;;12.39;57.57
41234;BME280;26968;42.686;23.352;2023-05-11T07:58:31;95566.94;;;12.82;58.00
41234;BME280;26968;42.686;23.352;2023-05-11T08:00:56;95552.34;;;12.79;56.91
41234;BME280;26968;42.686;23.352;2023-05-11T08:03:22;95558.63;;;12.93;56.95
41234;BME280;26968;42.686;23.352;2023-05-11T08:05:47;95490.25;;;12.55;56.73
41234;BME280;26968;42.686;23.352;2023-05-11T08:08:13;95577.78;;;13.29;56.50
41234;BME280;26968;42.686;23.352;2023-05-11T08:10:40;95493.78;;;13.08;55.56
41234;BME280;26968;42.686;23.352;2023-05-11T08:13:05;95471.50;;;12.99;55.90
41234;BME280;26968;42.686;23.352;2023-05-11T08:15:31;95573.47;;;13.62;54.71
41234;BME280;26968;42.686;23.352;2023-05-11T08:17:58;95560.34;;;13.66;54.26
41234;BME280;26968;42.686;23.352;2023-05-11T08:20:23;95531.50;;;13.73;53.74
41234;BME280;26968;42.686;23.352;2023-05-11T08:22:49;95473.78;;;13.39;52.68
41234;BME280;26968;42.686;23.352;2023-05-11T08:25:15;95574.66;;;13.99;52.91
41234;BME280;26968;42.686;23.352;2023-05-11T08:27:40;95506.44;;;13.50;53.11
41234;BME280;26968;42.686;23.352;2023-05-11T08:30:06;95550.28;;;14.05;53.33
41234;BME280;26968;42.686;23.352;2023-05-11T08:32:34;95530.78;;;14.10;54.48
41234;BME280;26968;42.686;23.352;2023-05-11T08:35:00;95533.09;;;14.35;52.93
41234;BME280;26968;42.686;23.352;2023-05-11T08:37:25;95539.44;;;14.20;53.34
41234;BME280;26968;42.686;23.352;2023-05-11T08:39:52;95558.16;;;14.58;51.72
41234;BME280;26968;42.686;23.352;2023-05-11T08:42:18;95579.81;;;14.75;51.11
41234;BME280;26968;42.686;23.352;2023-05-11T08:44:46;95525.94;;;14.54;51.56
41234;BME280;26968;42.686;23.352;2023-05-11T08:47:12;95553.84;;;14.62;52.75
41234;BME280;26968;42.686;23.352;2023-05-11T08:49:37;95519.22;;;14.57;51.52
41234;BME280;26968;42.686;23.352;2023-05-11T08:52:04;95535.28;;;14.52;52.07
41234;BME280;26968;42.686;23.352;2023-05-11T08:54:30;95571.13;;;15.02;50.63
41234;BME280;26968;42.686;23.352;2023-05-11T08:56:56;95537.69;;;15.04;50.99
41234;BME280;26968;42.686;23.352;2023-05-11T08:59:26;95533.88;;;14.92;51.24
41234;BME280;26968;42.686;23.352;2023-05-11T09:01:52;95561.16;;;15.07;50.56
41234;BME280;26968;42.686;23.352;2023-05-11T09:04:19;95550.00;;;14.87;51.84
41234;BME280;26968;42.686;23.352;2023-05-11T09:06:45;95548.69;;;14.84;51.70
41234;BME280;26968;42.686;23.352;2023-05-11T09:09:12;95532.34;;;14.72;52.74
41234;BME280;26968;42.686;23.352;2023-05-11T09:11:38;95557.28;;;14.81;51.68
41234;BME280;26968;42.686;23.352;2023-05-11T09:14:03;95525.97;;;14.87;51.52
41234;BME280;26968;42.686;23.352;2023-05-11T09:16:29;95532.72;;;14.98;51.77
41234;BME280;26968;42.686;23.352;2023-05-11T09:18:58;95514.81;;;14.98;50.99
41234;BME280;26968;42.686;23.352;2023-05-11T09:21:24;95557.69;;;15.07;52.73
41234;BME280;26968;42.686;23.352;2023-05-11T09:23:50;95547.50;;;15.09;52.22
41234;BME280;26968;42.686;23.352;2023-05-11T09:26:19;95567.72;;;14.96;51.44
41234;BME280;26968;42.686;23.352;2023-05-11T09:28:50;95538.81;;;14.66;52.10
41234;BME280;26968;42.686;23.352;2023-05-11T09:31:46;95563.53;;;15.09;52.10
41234;BME280;26968;42.686;23.352;2023-05-11T09:34:19;95460.56;;;14.52;51.90
41234;BME280;26968;42.686;23.352;2023-05-11T09:36:55;95471.22;;;14.71;51.80
41234;BME280;26968;42.686;23.352;2023-05-11T09:39:34;95519.53;;;14.88;51.90
41234;BME280;26968;42.686;23.352;2023-05-11T09:42:17;95553.94;;;14.89;51.84
41234;BME280;26968;42.686;23.352;2023-05-11T09:44:44;95511.81;;;14.86;51.16
41234;BME280;26968;42.686;23.352;2023-05-11T09:47:18;95509.97;;;14.68;51.25
41234;BME280;26968;42.686;23.352;2023-05-11T09:49:46;95530.66;;;14.76;52.60
41234;BME280;26968;42.686;23.352;2023-05-11T09:52:13;95524.69;;;14.98;51.49
41234;BME280;26968;42.686;23.352;2023-05-11T09:54:43;95540.81;;;14.93;52.47
41234;BME280;26968;42.686;23.352;2023-05-11T09:59:51;95545.28;;;15.43;52.02
41234;BME280;26968;42.686;23.352;2023-05-11T10:02:30;95433.13;;;15.11;51.49
41234;BME280;26968;42.686;23.352;2023-05-11T10:05:00;95448.31;;;15.57;49.48
41234;BME280;26968;42.686;23.352;2023-05-11T10:07:33;95446.63;;;15.61;49.42
41234;BME280;26968;42.686;23.352;2023-05-11T10:10:07;95412.19;;;15.59;48.79
41234;BME280;26968;42.686;23.352;2023-05-11T10:12:35;95533.88;;;15.98;49.58
41234;BME280;26968;42.686;23.352;2023-05-11T10:15:05;95459.19;;;15.74;50.27
41234;BME280;26968;42.686;23.352;2023-05-11T10:17:32;95513.91;;;16.31;49.13
41234;BME280;26968;42.686;23.352;2023-05-11T10:19:59;95505.03;;;16.44;48.59
41234;BME280;26968;42.686;23.352;2023-05-11T10:22:26;95358.72;;;15.45;49.67
41234;BME280;26968;42.686;23.352;2023-05-11T10:24:52;95520.97;;;16.49;48.20
41234;BME280;26968;42.686;23.352;2023-05-11T10:27:19;95514.56;;;16.37;47.74
41234;BME280;26968;42.686;23.352;2023-05-11T10:29:45;95503.03;;;16.86;47.08
41234;BME280;26968;42.686;23.352;2023-05-11T10:32:16;95476.88;;;16.47;47.79
41234;BME280;26968;42.686;23.352;2023-05-11T10:34:43;95503.50;;;16.88;47.35
41234;BME280;26968;42.686;23.352;2023-05-11T10:37:09;95490.63;;;16.54;48.43
41234;BME280;26968;42.686;23.352;2023-05-11T10:39:38;95453.88;;;16.46;47.80
41234;BME280;26968;42.686;23.352;2023-05-11T11:01:38;95466.69;;;18.21;44.22
41234;BME280;26968;42.686;23.352;2023-05-11T11:04:06;95492.13;;;18.49;43.50
41234;BME280;26968;42.686;23.352;2023-05-11T11:06:33;95492.41;;;18.13;44.21
41234;BME280;26968;42.686;23.352;2023-05-11T11:09:03;95486.97;;;17.87;44.95
41234;BME280;26968;42.686;23.352;2023-05-11T11:11:31;95499.75;;;17.82;45.26
41234;BME280;26968;42.686;23.352;2023-05-11T11:14:01;95477.66;;;17.76;43.68
41234;BME280;26968;42.686;23.352;2023-05-11T11:16:31;95419.88;;;17.79;44.45
41234;BME280;26968;42.686;23.352;2023-05-11T11:21:55;95494.56;;;17.94;43.54
41234;BME280;26968;42.686;23.352;2023-05-11T11:27:05;95454.75;;;17.61;45.01
41234;BME280;26968;42.686;23.352;2023-05-11T11:29:33;95468.94;;;17.70;44.03
41234;BME280;26968;42.686;23.352;2023-05-11T11:34:50;95456.47;;;17.66;44.31
41234;BME280;26968;42.686;23.352;2023-05-11T11:37:16;95476.03;;;17.66;44.65
41234;BME280;26968;42.686;23.352;2023-05-11T11:42:12;95443.88;;;17.35;44.46
41234;BME280;26968;42.686;23.352;2023-05-11T11:44:39;95468.69;;;17.89;44.63
41234;BME280;26968;42.686;23.352;2023-05-11T11:49:41;95464.31;;;18.10;43.80
41234;BME280;26968;42.686;23.352;2023-05-11T11:54:56;95459.19;;;17.74;43.34
41234;BME280;26968;42.686;23.352;2023-05-11T12:00:05;95474.56;;;17.60;45.19
41234;BME280;26968;42.686;23.352;2023-05-11T12:02:32;95449.50;;;17.25;45.41
41234;BME280;26968;42.686;23.352;2023-05-11T12:05:24;95480.25;;;17.59;44.95
41234;BME280;26968;42.686;23.352;2023-05-11T12:07:51;95445.84;;;17.52;45.38
41234;BME280;26968;42.686;23.352;2023-05-11T12:10:20;95448.06;;;17.19;45.40
41234;BME280;26968;42.686;23.352;2023-05-11T12:12:47;95398.56;;;16.86;45.13
41234;BME280;26968;42.686;23.352;2023-05-11T12:17:48;95454.63;;;16.82;45.45
41234;BME280;26968;42.686;23.352;2023-05-11T12:20:15;95456.22;;;16.83;45.82
41234;BME280;26968;42.686;23.352;2023-05-11T12:22:42;95456.75;;;16.72;45.74
41234;BME280;26968;42.686;23.352;2023-05-11T12:25:09;95402.31;;;16.18;46.61
41234;BME280;26968;42.686;23.352;2023-05-11T12:27:46;95457.63;;;16.23;47.75
41234;BME280;26968;42.686;23.352;2023-05-11T12:30:25;95453.66;;;16.20;46.87
41234;BME280;26968;42.686;23.352;2023-05-11T12:32:52;95405.53;;;16.06;47.68
41234;BME280;26968;42.686;23.352;2023-05-11T12:35:32;95416.88;;;16.26;47.40
41234;BME280;26968;42.686;23.352;2023-05-11T12:38:00;95427.41;;;16.44;46.55
41234;BME280;26968;42.686;23.352;2023-05-11T12:40:29;95429.41;;;16.39;45.77
41234;BME280;26968;42.686;23.352;2023-05-11T12:42:57;95423.66;;;16.45;46.82
41234;BME280;26968;42.686;23.352;2023-05-11T12:45:23;95419.31;;;16.36;47.08
41234;BME280;26968;42.686;23.352;2023-05-11T12:47:51;95395.13;;;16.05;47.57
41234;BME280;26968;42.686;23.352;2023-05-11T12:50:17;95429.50;;;16.47;47.20
41234;BME280;26968;42.686;23.352;2023-05-11T12:52:45;95381.03;;;15.91;47.44
41234;BME280;26968;42.686;23.352;2023-05-11T12:55:10;95365.22;;;16.03;46.35
41234;BME280;26968;42.686;23.352;2023-05-11T12:57:38;95422.28;;;16.34;46.69
41234;BME280;26968;42.686;23.352;2023-05-11T13:00:14;95399.97;;;16.16;47.42
41234;BME280;26968;42.686;23.352;2023-05-11T13:02:51;95425.88;;;16.30;47.51
41234;BME280;26968;42.686;23.352;2023-05-11T13:05:18;95419.31;;;16.36;47.70
41234;BME280;26968;42.686;23.352;2023-05-11T13:07:58;95378.41;;;15.99;46.90
41234;BME280;26968;42.686;23.352;2023-05-11T13:10:24;95391.91;;;15.94;47.63
41234;BME280;26968;42.686;23.352;2023-05-11T13:12:53;95360.09;;;15.57;47.36
41234;BME280;26968;42.686;23.352;2023-05-11T13:15:22;95399.94;;;15.94;47.81
41234;BME280;26968;42.686;23.352;2023-05-11T13:17:55;95414.97;;;16.04;48.43
41234;BME280;26968;42.686;23.352;2023-05-11T13:20:29;95378.63;;;15.89;47.89
41234;BME280;26968;42.686;23.352;2023-05-11T13:25:31;95413.63;;;15.93;48.77
41234;BME280;26968;42.686;23.352;2023-05-11T13:27:57;95404.38;;;15.63;48.45
41234;BME280;26968;42.686;23.352;2023-05-11T13:30:24;95388.00;;;15.78;48.58
41234;BME280;26968;42.686;23.352;2023-05-11T13:32:49;95380.34;;;15.85;49.07
41234;BME280;26968;42.686;23.352;2023-05-11T13:35:15;95383.56;;;15.96;48.75
41234;BME280;26968;42.686;23.352;2023-05-11T13:37:40;95369.59;;;15.99;48.56
41234;BME280;26968;42.686;23.352;2023-05-11T13:40:06;95393.84;;;16.02;48.21
41234;BME280;26968;42.686;23.352;2023-05-11T13:42:52;95368.28;;;15.74;48.77
41234;BME280;26968;42.686;23.352;2023-05-11T13:45:17;95375.41;;;15.78;48.12
41234;BME280;26968;42.686;23.352;2023-05-11T13:47:43;95370.19;;;15.60;48.65
41234;BME280;26968;42.686;23.352;2023-05-11T13:50:08;95401.91;;;15.89;49.25